Impacts TAF Board
For situational awareness. Not to be used for flight planning purposes.
IDs:

KBOS - Boston/Logan Intl, MA, US

Issued at 1120 UTC 21 Sep 2018
Updated at 1127 UTC 21 Sep 2018
Potential Impact None Slight Moderate High
Time<<22/12Z 22/13Z 22/14Z 22/15Z 22/16Z 22/17Z 22/18Z 22/19Z 22/20Z 22/21Z 22/22Z 22/23Z 23/00Z
Type PRVL PRVL PRVL PRVL PRVL PRVL
VIS >6 >6 >6 >6 >6 >6
CIG 250 250 -- -- -- --
Cover BKN BKN FEW FEW FEW FEW
FltCat VFR VFR VFR VFR VFR VFR
WX -- -- -- -- -- --
WDir 280 280 320 320 320 320
WSpd 14 14 12 12 12 12
WGst 23 23 22 22 22 22
Raw TAF
KBOS 211120Z 2112/2218 18007KT P6SM SCT035 BKN120
  FM211500 17009KT P6SM BKN100
  FM212000 18014KT P6SM SCT080
  FM220100 20015G24KT P6SM BKN050
  FM220700 23016G26KT P6SM BKN015
  FM221100 28014G23KT P6SM BKN250
  FM221400 32012G22KT P6SM FEW250


METAR Board
Radar Display
Forecast Discussion
For situational awareness. Not to be used for flight planning purposes.